Wetterdaten: Woche 27.08.18 - 02.09.18 (KW35)
Datum Zeit Temp. A. Pool Temp. Temp. 5cm Feuchte A. Luftdruck Regen Wind Richtung Sonnenschein ET UV Solar Taupunkt Windchill Windben Empfang
27.08.2018 00:00 9,1 C 20,3 C 6,9 C 88 % 1016,9 hPa 0,0 l/m 1,2 km/h (1 Bft) S-SW 0,00 h 0,000 mm 0,0 UV-I 0 W/m 7,2 C 9,1 C 1,9 km/h (1 Bft) 98,31 %
27.08.2018 01:00 7,8 C 20,0 C 6,0 C 92 % 1016,9 hPa 0,0 l/m 0,0 km/h (0 Bft) N 0,00 h 0,000 mm 0,0 UV-I 0 W/m 6,6 C 7,8 C 0,0 km/h (0 Bft) 97,31 %
27.08.2018 02:00 7,2 C 20,0 C 5,1 C 93 % 1016,8 hPa 0,0 l/m 0,0 km/h (0 Bft) N 0,00 h 0,000 mm 0,0 UV-I 0 W/m 6,1 C 7,2 C 0,0 km/h (0 Bft) 97,18 %
27.08.2018 03:00 6,8 C 20,0 C 5,7 C 93 % 1016,9 hPa 0,0 l/m 0,0 km/h (0 Bft) N 0,00 h 0,000 mm 0,0 UV-I 0 W/m 5,8 C 6,8 C 0,0 km/h (0 Bft) 97,68 %
27.08.2018 04:00 6,8 C 19,6 C 5,3 C 93 % 1017,1 hPa 0,0 l/m 0,0 km/h (0 Bft) N 0,00 h 0,000 mm 0,0 UV-I 0 W/m 5,7 C 6,8 C 0,0 km/h (0 Bft) 96,98 %
27.08.2018 05:00 6,7 C 19,4 C 5,2 C 92 % 1017,0 hPa 0,0 l/m 0,5 km/h (0 Bft) S 0,00 h 0,000 mm 0,0 UV-I 0 W/m 5,5 C 6,7 C 0,9 km/h (0 Bft) 96,53 %
27.08.2018 06:00 6,2 C 19,4 C 4,7 C 94 % 1017,1 hPa 0,0 l/m 0,0 km/h (0 Bft) N 0,20 h 0,000 mm 0,0 UV-I 22 W/m 5,3 C 6,2 C 0,0 km/h (0 Bft) 98,45 %
27.08.2018 07:00 7,7 C 19,4 C 6,7 C 94 % 1017,3 hPa 0,0 l/m 0,0 km/h (0 Bft) N 0,87 h 0,000 mm 0,2 UV-I 148 W/m 6,8 C 7,7 C 0,0 km/h (0 Bft) 96,06 %
27.08.2018 08:00 10,6 C 19,4 C 10,2 C 87 % 1017,5 hPa 0,0 l/m 0,0 km/h (0 Bft) N 0,80 h 0,076 mm 0,7 UV-I 271 W/m 8,5 C 10,6 C 0,0 km/h (0 Bft) 98,59 %
27.08.2018 09:00 12,1 C 19,4 C 18,1 C 82 % 1017,5 hPa 0,0 l/m 2,5 km/h (1 Bft) O 0,83 h 0,127 mm 1,6 UV-I 382 W/m 9,1 C 12,0 C 4,5 km/h (1 Bft) 97,65 %
27.08.2018 10:00 14,5 C 19,4 C 27,0 C 74 % 1017,4 hPa 0,0 l/m 5,8 km/h (2 Bft) O-NO 1,00 h 0,203 mm 2,9 UV-I 620 W/m 10,0 C 14,3 C 9,9 km/h (2 Bft) 97,10 %
27.08.2018 11:00 16,7 C 19,7 C 30,6 C 66 % 1017,2 hPa 0,0 l/m 4,9 km/h (1 Bft) NO 1,02 h 0,331 mm 4,0 UV-I 716 W/m 10,3 C 16,6 C 9,3 km/h (2 Bft) 96,21 %
27.08.2018 12:00 18,7 C 20,0 C 32,4 C 59 % 1016,6 hPa 0,0 l/m 4,0 km/h (1 Bft) O-NO 0,98 h 0,406 mm 4,6 UV-I 763 W/m 10,6 C 18,6 C 7,8 km/h (2 Bft) 95,21 %
27.08.2018 13:00 20,2 C 20,5 C 33,7 C 48 % 1016,1 hPa 0,0 l/m 3,6 km/h (1 Bft) NW 1,00 h 0,457 mm 4,9 UV-I 762 W/m 8,7 C 20,2 C 7,4 km/h (2 Bft) 96,92 %
27.08.2018 14:00 21,7 C 20,7 C 34,6 C 40 % 1015,7 hPa 0,0 l/m 1,0 km/h (0 Bft) S-SW 1,00 h 0,457 mm 4,4 UV-I 710 W/m 7,6 C 21,6 C 4,0 km/h (1 Bft) 97,84 %
27.08.2018 15:00 22,7 C 21,1 C 33,7 C 40 % 1015,4 hPa 0,0 l/m 0,3 km/h (0 Bft) NO 1,00 h 0,432 mm 3,3 UV-I 611 W/m 8,4 C 22,7 C 1,8 km/h (1 Bft) 98,88 %
27.08.2018 16:00 23,3 C 21,1 C 33,5 C 37 % 1015,1 hPa 0,0 l/m 0,1 km/h (0 Bft) N 1,00 h 0,381 mm 2,0 UV-I 476 W/m 7,7 C 23,3 C 0,9 km/h (0 Bft) 97,17 %
27.08.2018 17:00 23,7 C 21,5 C 30,3 C 35 % 1015,0 hPa 0,0 l/m 0,0 km/h (0 Bft) N 1,00 h 0,305 mm 1,0 UV-I 317 W/m 7,4 C 23,7 C 0,5 km/h (0 Bft) 96,68 %
27.08.2018 18:00 23,2 C 21,7 C 22,0 C 36 % 1015,0 hPa 0,0 l/m 0,0 km/h (0 Bft) N 0,83 h 0,203 mm 0,5 UV-I 148 W/m 7,4 C 23,2 C 0,0 km/h (0 Bft) 97,01 %
27.08.2018 19:00 20,2 C 21,2 C 18,2 C 49 % 1015,2 hPa 0,0 l/m 0,0 km/h (0 Bft) N 0,03 h 0,102 mm 0,0 UV-I 22 W/m 9,0 C 20,2 C 0,0 km/h (0 Bft) 98,44 %
27.08.2018 20:00 18,5 C 21,1 C 17,3 C 57 % 1015,5 hPa 0,0 l/m 0,0 km/h (0 Bft) N 0,00 h 0,025 mm 0,0 UV-I 5 W/m 9,9 C 18,5 C 0,0 km/h (0 Bft) 98,24 %
27.08.2018 21:00 18,3 C 21,1 C 17,5 C 60 % 1015,8 hPa 0,0 l/m 0,0 km/h (0 Bft) N 0,00 h 0,000 mm 0,0 UV-I 0 W/m 10,3 C 18,3 C 0,0 km/h (0 Bft) 96,61 %
27.08.2018 22:00 18,0 C 21,1 C 16,9 C 63 % 1016,3 hPa 0,0 l/m 0,0 km/h (0 Bft) N 0,00 h 0,000 mm 0,0 UV-I 0 W/m 10,9 C 18,0 C 0,0 km/h (0 Bft) 96,74 %
27.08.2018 23:00 17,1 C 21,1 C 15,3 C 66 % 1016,6 hPa 0,0 l/m 0,0 km/h (0 Bft) N 0,00 h 0,000 mm 0,0 UV-I 0 W/m 10,7 C 17,1 C 0,1 km/h (0 Bft) 99,18 %
28.08.2018 00:00 17,0 C 21,1 C 16,0 C 67 % 1016,9 hPa 0,0 l/m 0,1 km/h (0 Bft) W-SW 0,00 h 0,000 mm 0,0 UV-I 0 W/m 10,9 C 17,0 C 1,2 km/h (1 Bft) 97,55 %
28.08.2018 01:00 17,3 C 21,1 C 15,6 C 67 % 1017,1 hPa 0,0 l/m 0,2 km/h (0 Bft) N 0,00 h 0,000 mm 0,0 UV-I 0 W/m 11,1 C 17,3 C 1,8 km/h (1 Bft) 96,82 %
28.08.2018 02:00 16,2 C 20,7 C 15,0 C 73 % 1017,3 hPa 0,0 l/m 0,0 km/h (0 Bft) N 0,00 h 0,000 mm 0,0 UV-I 0 W/m 11,4 C 16,2 C 0,0 km/h (0 Bft) 96,69 %
28.08.2018 03:00 16,0 C 20,6 C 15,1 C 77 % 1017,3 hPa 0,0 l/m 0,0 km/h (0 Bft) N 0,00 h 0,000 mm 0,0 UV-I 0 W/m 12,0 C 16,0 C 0,0 km/h (0 Bft) 99,07 %
28.08.2018 04:00 15,8 C 20,6 C 15,0 C 78 % 1017,4 hPa 0,0 l/m 0,0 km/h (0 Bft) N 0,00 h 0,000 mm 0,0 UV-I 0 W/m 12,0 C 15,8 C 0,0 km/h (0 Bft) 96,32 %
28.08.2018 05:00 15,5 C 20,6 C 14,2 C 79 % 1017,6 hPa 0,0 l/m 0,0 km/h (0 Bft) N 0,00 h 0,000 mm 0,0 UV-I 0 W/m 11,9 C 15,5 C 0,0 km/h (0 Bft) 96,74 %
28.08.2018 06:00 15,5 C 20,6 C 15,2 C 82 % 1017,9 hPa 0,0 l/m 0,0 km/h (0 Bft) N 0,00 h 0,000 mm 0,0 UV-I 14 W/m 12,3 C 15,5 C 0,0 km/h (0 Bft) 97,43 %
28.08.2018 07:00 16,5 C 20,6 C 17,1 C 79 % 1018,2 hPa 0,0 l/m 0,0 km/h (0 Bft) N 0,03 h 0,000 mm 0,0 UV-I 71 W/m 12,8 C 16,5 C 0,0 km/h (0 Bft) 98,52 %
28.08.2018 08:00 18,2 C 20,6 C 20,0 C 74 % 1018,5 hPa 0,0 l/m 0,0 km/h (0 Bft) N 0,57 h 0,051 mm 0,6 UV-I 202 W/m 13,5 C 18,2 C 0,0 km/h (0 Bft) 97,29 %
28.08.2018 09:00 20,1 C 20,6 C 26,1 C 68 % 1018,5 hPa 0,0 l/m 0,0 km/h (0 Bft) N 0,93 h 0,127 mm 1,5 UV-I 400 W/m 13,9 C 20,1 C 0,3 km/h (0 Bft) 97,29 %
28.08.2018 10:00 21,6 C 20,8 C 32,0 C 63 % 1018,5 hPa 0,0 l/m 0,0 km/h (0 Bft) N 0,97 h 0,228 mm 2,3 UV-I 555 W/m 14,3 C 21,6 C 0,2 km/h (0 Bft) 96,85 %
28.08.2018 11:00 23,0 C 21,1 C 34,9 C 56 % 1018,4 hPa 0,0 l/m 0,1 km/h (0 Bft) S 1,00 h 0,331 mm 3,7 UV-I 669 W/m 13,8 C 23,0 C 1,0 km/h (0 Bft) 98,31 %
28.08.2018 12:00 23,9 C 21,4 C 36,4 C 54 % 1018,1 hPa 0,0 l/m 0,3 km/h (0 Bft) SO 1,00 h 0,406 mm 4,4 UV-I 730 W/m 14,0 C 23,9 C 1,8 km/h (1 Bft) 97,90 %
28.08.2018 13:00 25,1 C 21,8 C 37,8 C 51 % 1017,7 hPa 0,0 l/m 0,3 km/h (0 Bft) N-NO 1,00 h 0,457 mm 4,5 UV-I 756 W/m 14,1 C 25,1 C 2,1 km/h (1 Bft) 96,20 %
28.08.2018 14:00 25,9 C 22,2 C 37,8 C 49 % 1017,3 hPa 0,0 l/m 0,7 km/h (0 Bft) NO 1,00 h 0,483 mm 4,0 UV-I 748 W/m 14,3 C 25,9 C 3,9 km/h (1 Bft) 97,67 %
28.08.2018 15:00 25,8 C 22,5 C 34,3 C 50 % 1016,7 hPa 0,0 l/m 0,8 km/h (0 Bft) N-NO 0,83 h 0,482 mm 2,8 UV-I 558 W/m 14,7 C 25,8 C 4,3 km/h (1 Bft) 98,69 %
28.08.2018 16:00 25,8 C 22,8 C 33,7 C 50 % 1016,3 hPa 0,0 l/m 1,1 km/h (1 Bft) NO 1,00 h 0,356 mm 1,8 UV-I 461 W/m 14,7 C 25,8 C 4,4 km/h (1 Bft) 95,86 %
28.08.2018 17:00 25,4 C 22,8 C 29,4 C 51 % 1016,1 hPa 0,0 l/m 0,4 km/h (0 Bft) N-NO 1,02 h 0,305 mm 0,9 UV-I 299 W/m 14,5 C 25,4 C 2,5 km/h (1 Bft) 98,04 %
28.08.2018 18:00 24,6 C 22,8 C 23,7 C 53 % 1015,9 hPa 0,0 l/m 0,0 km/h (0 Bft) N 0,68 h 0,203 mm 0,5 UV-I 136 W/m 14,3 C 24,6 C 0,2 km/h (0 Bft) 97,44 %
28.08.2018 19:00 22,7 C 22,8 C 19,4 C 59 % 1016,0 hPa 0,0 l/m 0,0 km/h (0 Bft) N 0,57 h 0,102 mm 0,0 UV-I 34 W/m 14,3 C 22,7 C 0,0 km/h (0 Bft) 98,43 %
28.08.2018 20:00 19,9 C 22,8 C 16,5 C 69 % 1016,1 hPa 0,0 l/m 0,0 km/h (0 Bft) N 0,00 h 0,000 mm 0,0 UV-I 5 W/m 14,0 C 19,9 C 0,0 km/h (0 Bft) 97,01 %
28.08.2018 21:00 18,1 C 22,8 C 15,5 C 76 % 1016,3 hPa 0,0 l/m 0,0 km/h (0 Bft) N 0,00 h 0,000 mm 0,0 UV-I 0 W/m 13,9 C 18,1 C 0,0 km/h (0 Bft) 97,30 %
28.08.2018 22:00 17,1 C 22,4 C 14,8 C 79 % 1016,2 hPa 0,0 l/m 0,0 km/h (0 Bft) N 0,00 h 0,000 mm 0,0 UV-I 0 W/m 13,4 C 17,1 C 0,0 km/h (0 Bft) 97,34 %
28.08.2018 23:00 16,4 C 22,2 C 13,7 C 82 % 1016,0 hPa 0,0 l/m 0,0 km/h (0 Bft) N 0,00 h 0,000 mm 0,0 UV-I 0 W/m 13,3 C 16,4 C 0,0 km/h (0 Bft) 99,34 %
29.08.2018 00:00 15,5 C 22,2 C 13,0 C 85 % 1015,8 hPa 0,0 l/m 0,0 km/h (0 Bft) N 0,00 h 0,000 mm 0,0 UV-I 0 W/m 12,9 C 15,5 C 0,0 km/h (0 Bft) 94,65 %
29.08.2018 01:00 14,5 C 22,2 C 12,2 C 88 % 1015,5 hPa 0,0 l/m 0,0 km/h (0 Bft) N 0,00 h 0,000 mm 0,0 UV-I 0 W/m 12,5 C 14,5 C 0,0 km/h (0 Bft) 98,30 %
29.08.2018 02:00 13,9 C 22,2 C 11,2 C 90 % 1015,0 hPa 0,0 l/m 0,0 km/h (0 Bft) N 0,00 h 0,000 mm 0,0 UV-I 0 W/m 12,3 C 13,9 C 0,0 km/h (0 Bft) 97,54 %
29.08.2018 03:00 13,2 C 22,0 C 10,9 C 92 % 1014,9 hPa 0,0 l/m 0,0 km/h (0 Bft) N 0,00 h 0,000 mm 0,0 UV-I 0 W/m 12,0 C 13,2 C 0,0 km/h (0 Bft) 97,26 %
29.08.2018 04:00 13,2 C 21,7 C 10,1 C 93 % 1014,6 hPa 0,0 l/m 0,0 km/h (0 Bft) N 0,00 h 0,000 mm 0,0 UV-I 0 W/m 12,0 C 13,2 C 0,0 km/h (0 Bft) 96,69 %
29.08.2018 05:00 12,5 C 21,7 C 9,9 C 93 % 1014,6 hPa 0,0 l/m 0,0 km/h (0 Bft) N 0,00 h 0,000 mm 0,0 UV-I 0 W/m 11,4 C 12,5 C 0,0 km/h (0 Bft) 98,68 %
29.08.2018 06:00 12,2 C 21,7 C 9,9 C 94 % 1014,8 hPa 0,0 l/m 0,0 km/h (0 Bft) N 0,30 h 0,000 mm 0,0 UV-I 22 W/m 11,2 C 12,2 C 0,0 km/h (0 Bft) 96,77 %
29.08.2018 07:00 13,4 C 21,7 C 12,2 C 92 % 1014,8 hPa 0,0 l/m 0,0 km/h (0 Bft) N 0,97 h 0,000 mm 0,0 UV-I 121 W/m 12,1 C 13,4 C 0,0 km/h (0 Bft) 97,64 %
29.08.2018 08:00 15,4 C 21,7 C 15,1 C 86 % 1014,5 hPa 0,0 l/m 0,0 km/h (0 Bft) N 1,00 h 0,000 mm 0,7 UV-I 275 W/m 12,9 C 15,4 C 0,0 km/h (0 Bft) 97,27 %
29.08.2018 09:00 17,3 C 21,7 C 23,0 C 78 % 1014,5 hPa 0,0 l/m 0,0 km/h (0 Bft) N 1,00 h 0,000 mm 1,4 UV-I 429 W/m 13,4 C 17,3 C 0,0 km/h (0 Bft) 98,41 %
29.08.2018 10:00 19,5 C 21,7 C 29,8 C 72 % 1014,4 hPa 0,0 l/m 0,0 km/h (0 Bft) N 1,00 h 0,000 mm 2,4 UV-I 568 W/m 14,2 C 19,5 C 0,0 km/h (0 Bft) 95,84 %
29.08.2018 11:00 21,6 C 21,7 C 33,6 C 66 % 1014,4 hPa 0,0 l/m 0,0 km/h (0 Bft) N 1,00 h 0,000 mm 3,4 UV-I 662 W/m 14,9 C 21,6 C 0,0 km/h (0 Bft) 98,04 %
29.08.2018 12:00 23,3 C 22,2 C 35,4 C 59 % 1014,0 hPa 0,0 l/m 0,0 km/h (0 Bft) N 1,00 h 0,000 mm 3,9 UV-I 701 W/m 14,8 C 23,3 C 0,0 km/h (0 Bft) 97,01 %
29.08.2018 13:00 24,4 C 22,4 C 34,5 C 55 % 1013,3 hPa 0,0 l/m 0,0 km/h (0 Bft) N 1,00 h 0,000 mm 3,7 UV-I 635 W/m 14,9 C 24,4 C 0,0 km/h (0 Bft) 99,38 %
29.08.2018 14:00 25,5 C 22,8 C 34,0 C 52 % 1012,9 hPa 0,0 l/m 0,0 km/h (0 Bft) N 0,83 h 0,000 mm 3,1 UV-I 523 W/m 15,0 C 25,5 C 0,0 km/h (0 Bft) 95,33 %
29.08.2018 15:00 26,6 C 22,8 C 36,1 C 50 % 1012,4 hPa 0,0 l/m 0,0 km/h (0 Bft) N 0,97 h 0,000 mm 2,8 UV-I 602 W/m 15,2 C 26,6 C 0,0 km/h (0 Bft) 98,50 %
29.08.2018 16:00 26,8 C 23,0 C 30,9 C 49 % 1011,9 hPa 0,0 l/m 0,1 km/h (0 Bft) N-NO 0,43 h 0,000 mm 1,3 UV-I 291 W/m 15,3 C 26,8 C 0,7 km/h (0 Bft) 97,59 %
29.08.2018 17:00 27,2 C 23,3 C 30,9 C 49 % 1011,5 hPa 0,0 l/m 2,5 km/h (1 Bft) O-NO 0,90 h 0,330 mm 0,8 UV-I 284 W/m 15,4 C 27,2 C 6,7 km/h (2 Bft) 98,09 %
29.08.2018 18:00 26,7 C 23,3 C 25,4 C 51 % 1011,0 hPa 0,0 l/m 1,5 km/h (1 Bft) O 0,80 h 0,203 mm 0,3 UV-I 143 W/m 15,7 C 26,7 C 4,7 km/h (1 Bft) 96,54 %
29.08.2018 19:00 24,8 C 23,3 C 20,6 C 55 % 1010,9 hPa 0,0 l/m 0,0 km/h (0 Bft) N 0,27 h 0,102 mm 0,0 UV-I 28 W/m 15,1 C 24,8 C 0,1 km/h (0 Bft) 97,26 %
29.08.2018 20:00 21,6 C 22,8 C 17,8 C 67 % 1011,0 hPa 0,0 l/m 0,0 km/h (0 Bft) N 0,00 h 0,025 mm 0,0 UV-I 3 W/m 15,3 C 21,6 C 0,1 km/h (0 Bft) 97,94 %
29.08.2018 21:00 19,5 C 22,8 C 16,8 C 75 % 1011,1 hPa 0,0 l/m 0,0 km/h (0 Bft) N 0,00 h 0,000 mm 0,0 UV-I 0 W/m 14,9 C 19,5 C 0,2 km/h (0 Bft) 98,69 %
29.08.2018 22:00 18,7 C 22,8 C 16,2 C 79 % 1011,3 hPa 0,0 l/m 0,1 km/h (0 Bft) SW 0,00 h 0,000 mm 0,0 UV-I 0 W/m 15,1 C 18,7 C 0,7 km/h (0 Bft) 95,69 %
29.08.2018 23:00 18,0 C 22,8 C 15,7 C 84 % 1011,6 hPa 0,0 l/m 0,0 km/h (0 Bft) N 0,00 h 0,000 mm 0,0 UV-I 0 W/m 15,2 C 18,0 C 0,4 km/h (0 Bft) 98,59 %
30.08.2018 00:00 18,0 C 22,8 C 16,8 C 85 % 1012,6 hPa 0,0 l/m 9,7 km/h (2 Bft) SW 0,00 h 0,000 mm 0,0 UV-I 0 W/m 15,4 C 16,1 C 15,1 km/h (3 Bft) 98,32 %
30.08.2018 01:00 19,8 C 22,8 C 18,9 C 81 % 1014,0 hPa 0,0 l/m 15,1 km/h (3 Bft) W-SW 0,00 h 0,025 mm 0,0 UV-I 0 W/m 16,3 C 17,0 C 23,4 km/h (4 Bft) 97,65 %
30.08.2018 02:00 20,0 C 22,4 C 19,5 C 80 % 1014,3 hPa 0,0 l/m 15,2 km/h (3 Bft) W-SW 0,00 h 0,051 mm 0,0 UV-I 0 W/m 16,5 C 17,3 C 23,0 km/h (4 Bft) 95,14 %
30.08.2018 03:00 19,2 C 22,2 C 18,7 C 80 % 1014,6 hPa 0,0 l/m 15,7 km/h (3 Bft) W-SW 0,00 h 0,051 mm 0,0 UV-I 0 W/m 15,6 C 16,2 C 24,6 km/h (4 Bft) 98,70 %
30.08.2018 04:00 18,2 C 22,2 C 17,3 C 83 % 1014,5 hPa 0,0 l/m 6,0 km/h (2 Bft) W-SW 0,00 h 0,051 mm 0,0 UV-I 0 W/m 15,3 C 17,8 C 11,2 km/h (2 Bft) 96,81 %
30.08.2018 05:00 17,9 C 22,2 C 17,1 C 84 % 1014,3 hPa 0,0 l/m 1,3 km/h (1 Bft) W 0,00 h 0,025 mm 0,0 UV-I 0 W/m 15,1 C 17,9 C 4,3 km/h (1 Bft) 97,03 %
30.08.2018 06:00 17,6 C 22,2 C 17,1 C 85 % 1014,5 hPa 0,0 l/m 4,4 km/h (1 Bft) W-SW 0,03 h 0,000 mm 0,0 UV-I 16 W/m 15,1 C 17,3 C 8,4 km/h (2 Bft) 96,15 %
30.08.2018 07:00 18,7 C 22,2 C 19,1 C 80 % 1014,8 hPa 0,0 l/m 7,7 km/h (2 Bft) W 0,30 h 0,026 mm 0,0 UV-I 92 W/m 15,2 C 18,1 C 13,4 km/h (3 Bft) 98,30 %
30.08.2018 08:00 19,4 C 22,2 C 20,2 C 77 % 1014,9 hPa 0,0 l/m 11,2 km/h (2 Bft) W-SW 0,00 h 0,076 mm 0,6 UV-I 92 W/m 15,3 C 17,7 C 18,2 km/h (3 Bft) 97,16 %
30.08.2018 09:00 20,0 C 22,2 C 21,7 C 76 % 1015,4 hPa 0,0 l/m 12,6 km/h (3 Bft) W-SW 0,00 h 0,101 mm 0,8 UV-I 162 W/m 15,6 C 17,9 C 22,0 km/h (4 Bft) 97,65 %
30.08.2018 10:00 20,1 C 22,2 C 22,1 C 76 % 1015,9 hPa 0,0 l/m 12,0 km/h (2 Bft) W 0,00 h 0,127 mm 1,2 UV-I 194 W/m 15,8 C 18,2 C 21,0 km/h (4 Bft) 95,21 %
30.08.2018 11:00 19,2 C 22,2 C 21,1 C 81 % 1016,3 hPa 0,0 l/m 10,2 km/h (2 Bft) W 0,00 h 0,153 mm 1,1 UV-I 166 W/m 15,9 C 17,8 C 19,7 km/h (3 Bft) 97,50 %
30.08.2018 12:00 18,4 C 22,2 C 19,3 C 87 % 1016,6 hPa 0,4 l/m 11,1 km/h (2 Bft) W 0,00 h 0,127 mm 1,7 UV-I 238 W/m 16,2 C 16,5 C 18,2 km/h (3 Bft) 98,12 %
30.08.2018 13:00 18,0 C 22,2 C 18,6 C 89 % 1017,0 hPa 0,2 l/m 14,7 km/h (3 Bft) SW 0,00 h 0,152 mm 1,3 UV-I 179 W/m 16,2 C 15,0 C 24,2 km/h (4 Bft) 97,50 %
30.08.2018 14:00 17,9 C 22,2 C 18,8 C 89 % 1017,3 hPa 0,2 l/m 18,8 km/h (3 Bft) W-SW 0,00 h 0,127 mm 1,7 UV-I 250 W/m 16,1 C 13,8 C 29,0 km/h (5 Bft) 95,74 %
30.08.2018 15:00 17,0 C 22,2 C 17,0 C 90 % 1018,2 hPa 0,6 l/m 15,3 km/h (3 Bft) W-SW 0,00 h 0,153 mm 0,7 UV-I 102 W/m 15,4 C 13,5 C 24,2 km/h (4 Bft) 98,44 %
30.08.2018 16:00 16,1 C 22,2 C 16,1 C 93 % 1018,5 hPa 2,4 l/m 8,6 km/h (2 Bft) SW 0,00 h 0,076 mm 0,5 UV-I 72 W/m 14,9 C 14,6 C 15,1 km/h (3 Bft) 97,43 %
30.08.2018 17:00 15,6 C 21,9 C 15,9 C 93 % 1018,7 hPa 0,6 l/m 6,7 km/h (2 Bft) SW 0,00 h 0,051 mm 0,0 UV-I 47 W/m 14,5 C 15,2 C 12,6 km/h (3 Bft) 96,82 %
30.08.2018 18:00 15,3 C 21,7 C 15,5 C 93 % 1018,5 hPa 0,2 l/m 3,5 km/h (1 Bft) S 0,00 h 0,025 mm 0,0 UV-I 23 W/m 14,1 C 15,2 C 8,2 km/h (2 Bft) 96,43 %
30.08.2018 19:00 15,2 C 21,7 C 15,2 C 93 % 1018,8 hPa 0,0 l/m 2,1 km/h (1 Bft) S 0,00 h 0,025 mm 0,0 UV-I 10 W/m 14,1 C 15,2 C 4,6 km/h (1 Bft) 98,30 %
30.08.2018 20:00 15,1 C 21,7 C 14,6 C 94 % 1019,1 hPa 0,0 l/m 0,1 km/h (0 Bft) N 0,00 h 0,000 mm 0,0 UV-I 0 W/m 14,2 C 15,1 C 0,5 km/h (0 Bft) 96,95 %
30.08.2018 21:00 14,7 C 21,7 C 14,4 C 96 % 1019,4 hPa 0,0 l/m 0,0 km/h (0 Bft) N 0,00 h 0,000 mm 0,0 UV-I 0 W/m 14,0 C 14,7 C 0,0 km/h (0 Bft) 97,11 %
30.08.2018 22:00 14,6 C 21,7 C 14,6 C 96 % 1019,6 hPa 0,0 l/m 0,0 km/h (0 Bft) N 0,00 h 0,000 mm 0,0 UV-I 0 W/m 14,0 C 14,6 C 0,0 km/h (0 Bft) 96,28 %
30.08.2018 23:00 14,7 C 21,6 C 14,8 C 96 % 1019,5 hPa 0,0 l/m 0,0 km/h (0 Bft) N 0,00 h 0,000 mm 0,0 UV-I 0 W/m 14,0 C 14,7 C 0,0 km/h (0 Bft) 98,16 %
31.08.2018 00:00 14,1 C 21,1 C 13,5 C 96 % 1019,3 hPa 0,0 l/m 0,0 km/h (0 Bft) N 0,00 h 0,000 mm 0,0 UV-I 0 W/m 13,4 C 14,1 C 0,1 km/h (0 Bft) 97,20 %
31.08.2018 01:00 13,6 C 21,1 C 11,9 C 96 % 1019,0 hPa 0,0 l/m 0,7 km/h (0 Bft) S 0,00 h 0,000 mm 0,0 UV-I 0 W/m 12,9 C 13,6 C 2,5 km/h (1 Bft) 96,38 %
31.08.2018 02:00 12,6 C 21,1 C 10,4 C 96 % 1018,7 hPa 0,0 l/m 0,0 km/h (0 Bft) N 0,00 h 0,000 mm 0,0 UV-I 0 W/m 12,0 C 12,6 C 0,0 km/h (0 Bft) 97,13 %
31.08.2018 03:00 12,2 C 21,1 C 10,7 C 97 % 1018,7 hPa 0,0 l/m 0,0 km/h (0 Bft) N 0,00 h 0,000 mm 0,0 UV-I 0 W/m 11,7 C 12,2 C 0,0 km/h (0 Bft) 97,77 %
31.08.2018 04:00 12,6 C 21,1 C 12,0 C 97 % 1018,5 hPa 0,0 l/m 0,0 km/h (0 Bft) SO 0,00 h 0,000 mm 0,0 UV-I 0 W/m 12,1 C 12,6 C 0,2 km/h (0 Bft) 96,56 %
31.08.2018 05:00 12,5 C 20,9 C 12,6 C 97 % 1018,2 hPa 0,0 l/m 0,1 km/h (0 Bft) NO 0,00 h 0,000 mm 0,0 UV-I 0 W/m 12,1 C 12,5 C 0,6 km/h (0 Bft) 96,43 %
31.08.2018 06:00 12,8 C 20,6 C 12,9 C 97 % 1018,3 hPa 0,0 l/m 1,5 km/h (1 Bft) O-SO 0,10 h 0,000 mm 0,0 UV-I 18 W/m 12,3 C 12,8 C 4,9 km/h (1 Bft) 96,80 %
31.08.2018 07:00 13,5 C 20,6 C 14,2 C 97 % 1018,1 hPa 0,0 l/m 3,2 km/h (1 Bft) NO 0,00 h 0,000 mm 0,0 UV-I 37 W/m 13,0 C 13,4 C 6,8 km/h (2 Bft) 97,86 %
31.08.2018 08:00 14,0 C 20,6 C 14,8 C 97 % 1017,9 hPa 0,0 l/m 7,3 km/h (2 Bft) O 0,00 h 0,025 mm 0,0 UV-I 63 W/m 13,5 C 13,1 C 12,2 km/h (2 Bft) 96,31 %
31.08.2018 09:00 14,6 C 20,6 C 16,8 C 96 % 1017,8 hPa 0,0 l/m 8,7 km/h (2 Bft) O-NO 0,03 h 0,026 mm 0,9 UV-I 213 W/m 13,9 C 13,2 C 14,6 km/h (3 Bft) 96,90 %
31.08.2018 10:00 15,5 C 20,6 C 17,3 C 93 % 1017,6 hPa 0,2 l/m 10,8 km/h (2 Bft) NO 0,00 h 0,127 mm 1,0 UV-I 207 W/m 14,3 C 13,4 C 16,2 km/h (3 Bft) 97,15 %
31.08.2018 11:00 16,4 C 20,6 C 19,9 C 88 % 1017,4 hPa 0,0 l/m 11,7 km/h (2 Bft) O-NO 0,40 h 0,127 mm 2,1 UV-I 368 W/m 14,4 C 14,1 C 18,7 km/h (3 Bft) 98,41 %
31.08.2018 12:00 17,3 C 20,6 C 20,7 C 83 % 1017,2 hPa 0,0 l/m 13,1 km/h (3 Bft) NO 0,10 h 0,228 mm 2,0 UV-I 300 W/m 14,4 C 14,6 C 19,9 km/h (4 Bft) 97,15 %
31.08.2018 13:00 18,4 C 20,6 C 24,4 C 79 % 1017,1 hPa 0,0 l/m 11,7 km/h (2 Bft) O-NO 0,60 h 0,204 mm 2,9 UV-I 441 W/m 14,8 C 16,4 C 17,9 km/h (3 Bft) 95,51 %
31.08.2018 14:00 18,6 C 21,1 C 21,0 C 77 % 1016,9 hPa 0,0 l/m 10,7 km/h (2 Bft) NO 0,00 h 0,279 mm 1,2 UV-I 174 W/m 14,5 C 16,9 C 18,0 km/h (3 Bft) 98,12 %
31.08.2018 15:00 18,9 C 21,1 C 20,7 C 76 % 1016,4 hPa 0,0 l/m 7,1 km/h (2 Bft) NO 0,00 h 0,127 mm 0,9 UV-I 151 W/m 14,5 C 18,4 C 12,5 km/h (3 Bft) 97,37 %
31.08.2018 16:00 18,6 C 20,7 C 19,3 C 79 % 1016,3 hPa 0,0 l/m 1,2 km/h (1 Bft) N-NO 0,00 h 0,102 mm 0,4 UV-I 59 W/m 14,8 C 18,5 C 2,3 km/h (1 Bft) 98,31 %
31.08.2018 17:00 18,1 C 20,6 C 18,6 C 84 % 1016,2 hPa 0,0 l/m 0,1 km/h (0 Bft) N 0,00 h 0,050 mm 0,0 UV-I 39 W/m 15,2 C 18,1 C 1,3 km/h (1 Bft) 96,12 %
31.08.2018 18:00 17,7 C 20,6 C 18,0 C 85 % 1016,1 hPa 0,0 l/m 0,5 km/h (0 Bft) W-SW 0,00 h 0,026 mm 0,0 UV-I 23 W/m 15,1 C 17,7 C 2,8 km/h (1 Bft) 97,33 %
31.08.2018 19:00 17,2 C 20,6 C 17,2 C 86 % 1016,1 hPa 0,0 l/m 2,0 km/h (1 Bft) SW 0,00 h 0,025 mm 0,0 UV-I 8 W/m 14,8 C 17,2 C 6,1 km/h (2 Bft) 96,63 %
31.08.2018 20:00 16,6 C 20,6 C 16,7 C 88 % 1016,5 hPa 0,0 l/m 1,6 km/h (1 Bft) SW 0,00 h 0,000 mm 0,0 UV-I 0 W/m 14,6 C 16,6 C 5,0 km/h (1 Bft) 98,60 %
31.08.2018 21:00 16,1 C 20,6 C 16,2 C 90 % 1016,9 hPa 0,0 l/m 2,0 km/h (1 Bft) SW 0,00 h 0,000 mm 0,0 UV-I 0 W/m 14,4 C 16,1 C 6,1 km/h (2 Bft) 95,50 %
31.08.2018 22:00 15,8 C 20,6 C 15,9 C 90 % 1016,9 hPa 0,0 l/m 3,2 km/h (1 Bft) SW 0,00 h 0,000 mm 0,0 UV-I 0 W/m 14,2 C 15,8 C 8,5 km/h (2 Bft) 97,00 %
31.08.2018 23:00 15,6 C 20,6 C 15,5 C 92 % 1017,1 hPa 0,2 l/m 1,0 km/h (0 Bft) W-SW 0,00 h 0,000 mm 0,0 UV-I 0 W/m 14,3 C 15,6 C 3,5 km/h (1 Bft) 97,72 %
01.09.2018 00:00 15,0 C 20,6 C 15,0 C 94 % 1017,1 hPa 0,4 l/m 0,1 km/h (0 Bft) N 0,00 h 0,000 mm 0,0 UV-I 0 W/m 14,2 C 15,0 C 1,1 km/h (0 Bft) 98,42 %
01.09.2018 01:00 14,3 C 20,6 C 14,2 C 93 % 1017,0 hPa 0,4 l/m 0,1 km/h (0 Bft) N-NO 0,00 h 0,000 mm 0,0 UV-I 0 W/m 13,1 C 14,3 C 0,5 km/h (0 Bft) 95,14 %
01.09.2018 02:00 13,8 C 20,6 C 13,9 C 94 % 1017,2 hPa 3,4 l/m 0,0 km/h (0 Bft) N 0,00 h 0,000 mm 0,0 UV-I 0 W/m 12,8 C 13,8 C 0,0 km/h (0 Bft) 97,80 %
01.09.2018 03:00 13,0 C 20,4 C 13,3 C 96 % 1017,2 hPa 2,6 l/m 0,1 km/h (0 Bft) N-NW 0,00 h 0,000 mm 0,0 UV-I 0 W/m 12,4 C 13,0 C 0,2 km/h (0 Bft) 97,44 %
01.09.2018 04:00 12,7 C 20,0 C 13,0 C 96 % 1017,2 hPa 1,0 l/m 0,9 km/h (0 Bft) N-NO 0,00 h 0,000 mm 0,0 UV-I 0 W/m 12,0 C 12,7 C 2,3 km/h (1 Bft) 97,61 %
01.09.2018 05:00 12,7 C 20,0 C 13,0 C 96 % 1017,1 hPa 0,2 l/m 0,0 km/h (0 Bft) N 0,00 h 0,000 mm 0,0 UV-I 0 W/m 12,0 C 12,7 C 0,0 km/h (0 Bft) 94,91 %
01.09.2018 06:00 12,7 C 20,0 C 13,1 C 96 % 1017,2 hPa 0,4 l/m 0,0 km/h (0 Bft) N 0,00 h 0,000 mm 0,0 UV-I 8 W/m 12,1 C 12,7 C 0,0 km/h (0 Bft) 98,59 %
01.09.2018 07:00 12,7 C 20,0 C 13,3 C 97 % 1017,6 hPa 0,0 l/m 0,0 km/h (0 Bft) N 0,00 h 0,000 mm 0,0 UV-I 17 W/m 12,3 C 12,7 C 0,0 km/h (0 Bft) 96,72 %
01.09.2018 08:00 12,8 C 20,0 C 14,0 C 97 % 1017,7 hPa 0,0 l/m 0,0 km/h (0 Bft) N 0,00 h 0,000 mm 0,0 UV-I 54 W/m 12,3 C 12,8 C 0,1 km/h (0 Bft) 97,34 %
01.09.2018 09:00 12,9 C 20,0 C 14,4 C 97 % 1018,0 hPa 0,2 l/m 0,0 km/h (0 Bft) N 0,00 h 0,025 mm 0,4 UV-I 67 W/m 12,5 C 12,9 C 0,1 km/h (0 Bft) 95,80 %
01.09.2018 10:00 13,2 C 20,0 C 14,5 C 97 % 1018,7 hPa 0,0 l/m 0,0 km/h (0 Bft) N 0,00 h 0,026 mm 0,4 UV-I 67 W/m 12,7 C 13,2 C 0,0 km/h (0 Bft) 98,34 %
01.09.2018 11:00 13,5 C 20,0 C 15,0 C 97 % 1019,0 hPa 0,0 l/m 0,0 km/h (0 Bft) N 0,00 h 0,025 mm 0,7 UV-I 88 W/m 13,1 C 13,5 C 0,1 km/h (0 Bft) 96,99 %
01.09.2018 12:00 13,7 C 20,0 C 15,3 C 96 % 1019,4 hPa 0,2 l/m 0,2 km/h (0 Bft) W-SW 0,00 h 0,051 mm 0,6 UV-I 75 W/m 13,0 C 13,7 C 0,4 km/h (0 Bft) 97,61 %
01.09.2018 13:00 13,8 C 20,0 C 14,9 C 95 % 1019,5 hPa 1,4 l/m 0,0 km/h (0 Bft) N 0,00 h 0,025 mm 0,6 UV-I 94 W/m 13,1 C 13,8 C 0,1 km/h (0 Bft) 96,87 %
01.09.2018 14:00 13,9 C 20,0 C 15,4 C 96 % 1019,5 hPa 1,2 l/m 0,0 km/h (0 Bft) N 0,00 h 0,051 mm 0,7 UV-I 108 W/m 13,2 C 13,9 C 0,0 km/h (0 Bft) 97,69 %
01.09.2018 15:00 14,1 C 20,0 C 15,5 C 95 % 1019,4 hPa 1,6 l/m 0,4 km/h (0 Bft) W 0,00 h 0,051 mm 0,6 UV-I 104 W/m 13,4 C 14,1 C 1,7 km/h (1 Bft) 97,22 %
01.09.2018 16:00 14,2 C 20,0 C 15,0 C 96 % 1019,4 hPa 1,6 l/m 1,4 km/h (1 Bft) W-SW 0,00 h 0,051 mm 0,0 UV-I 59 W/m 13,5 C 14,2 C 4,9 km/h (1 Bft) 97,28 %
01.09.2018 17:00 14,3 C 20,0 C 14,9 C 96 % 1019,6 hPa 0,8 l/m 0,8 km/h (0 Bft) W 0,00 h 0,025 mm 0,0 UV-I 36 W/m 13,7 C 14,3 C 2,9 km/h (1 Bft) 95,64 %
01.09.2018 18:00 14,2 C 19,6 C 14,5 C 97 % 1019,5 hPa 0,6 l/m 4,4 km/h (1 Bft) W 0,00 h 0,026 mm 0,0 UV-I 23 W/m 13,7 C 14,0 C 10,0 km/h (2 Bft) 98,54 %
01.09.2018 19:00 13,9 C 19,4 C 14,3 C 97 % 1019,8 hPa 0,2 l/m 5,8 km/h (2 Bft) W 0,00 h 0,025 mm 0,0 UV-I 8 W/m 13,4 C 13,5 C 11,5 km/h (2 Bft) 97,13 %
01.09.2018 20:00 13,8 C 19,4 C 13,9 C 97 % 1020,4 hPa 0,6 l/m 4,1 km/h (1 Bft) W-SW 0,00 h 0,000 mm 0,0 UV-I 0 W/m 13,3 C 13,7 C 8,6 km/h (2 Bft) 96,56 %
01.09.2018 21:00 13,6 C 19,4 C 13,9 C 97 % 1020,5 hPa 0,4 l/m 8,8 km/h (2 Bft) W-SW 0,00 h 0,000 mm 0,0 UV-I 0 W/m 13,2 C 12,2 C 14,3 km/h (3 Bft) 95,54 %
01.09.2018 22:00 13,7 C 19,4 C 13,9 C 97 % 1020,3 hPa 0,0 l/m 9,6 km/h (2 Bft) W-SW 0,00 h 0,000 mm 0,0 UV-I 0 W/m 13,2 C 12,0 C 15,0 km/h (3 Bft) 98,85 %
01.09.2018 23:00 13,7 C 19,4 C 13,9 C 97 % 1020,2 hPa 0,0 l/m 8,8 km/h (2 Bft) W-SW 0,00 h 0,000 mm 0,0 UV-I 0 W/m 13,2 C 12,2 C 14,6 km/h (3 Bft) 96,69 %
02.09.2018 00:00 13,5 C 19,4 C 13,8 C 97 % 1020,5 hPa 0,4 l/m 5,1 km/h (1 Bft) W 0,00 h 0,000 mm 0,0 UV-I 0 W/m 13,0 C 13,2 C 10,3 km/h (2 Bft) 96,19 %
02.09.2018 01:00 13,2 C 19,4 C 13,3 C 97 % 1020,6 hPa 0,2 l/m 9,4 km/h (2 Bft) W-SW 0,00 h 0,000 mm 0,0 UV-I 0 W/m 12,8 C 11,5 C 15,3 km/h (3 Bft) 96,93 %
02.09.2018 02:00 13,0 C 19,3 C 13,0 C 97 % 1020,4 hPa 0,4 l/m 11,7 km/h (2 Bft) W-SW 0,00 h 0,000 mm 0,0 UV-I 0 W/m 12,5 C 10,1 C 18,1 km/h (3 Bft) 98,66 %
02.09.2018 03:00 12,8 C 18,9 C 12,8 C 97 % 1020,1 hPa 0,2 l/m 11,2 km/h (2 Bft) W-SW 0,00 h 0,000 mm 0,0 UV-I 0 W/m 12,3 C 10,1 C 18,3 km/h (3 Bft) 97,04 %
02.09.2018 04:00 12,6 C 18,9 C 12,8 C 97 % 1020,0 hPa 0,2 l/m 11,4 km/h (2 Bft) W-SW 0,00 h 0,000 mm 0,0 UV-I 0 W/m 12,1 C 9,8 C 17,9 km/h (3 Bft) 96,67 %
02.09.2018 05:00 12,5 C 18,9 C 12,6 C 96 % 1019,7 hPa 0,0 l/m 8,4 km/h (2 Bft) W-SW 0,00 h 0,000 mm 0,0 UV-I 0 W/m 12,0 C 11,2 C 14,0 km/h (3 Bft) 96,67 %
02.09.2018 06:00 12,6 C 18,9 C 12,6 C 96 % 1019,6 hPa 0,0 l/m 8,9 km/h (2 Bft) W-SW 0,00 h 0,000 mm 0,0 UV-I 10 W/m 11,9 C 11,1 C 14,8 km/h (3 Bft) 98,24 %
02.09.2018 07:00 12,7 C 18,9 C 13,0 C 95 % 1019,7 hPa 0,0 l/m 7,0 km/h (2 Bft) W 0,00 h 0,000 mm 0,0 UV-I 32 W/m 11,9 C 12,0 C 12,0 km/h (2 Bft) 96,66 %
02.09.2018 08:00 13,0 C 18,9 C 13,5 C 94 % 1019,8 hPa 0,0 l/m 3,6 km/h (1 Bft) W 0,00 h 0,025 mm 0,0 UV-I 49 W/m 12,1 C 12,8 C 9,0 km/h (2 Bft) 97,24 %
02.09.2018 09:00 13,4 C 18,9 C 14,6 C 94 % 1020,0 hPa 0,0 l/m 0,9 km/h (0 Bft) W-SW 0,00 h 0,026 mm 0,6 UV-I 106 W/m 12,4 C 13,4 C 2,5 km/h (1 Bft) 96,28 %
02.09.2018 10:00 13,7 C 18,9 C 15,4 C 93 % 1020,2 hPa 0,0 l/m 0,0 km/h (0 Bft) N 0,00 h 0,051 mm 0,7 UV-I 126 W/m 12,6 C 13,7 C 0,0 km/h (0 Bft) 97,72 %
02.09.2018 11:00 14,1 C 18,9 C 15,6 C 92 % 1020,4 hPa 0,0 l/m 0,0 km/h (0 Bft) N 0,00 h 0,076 mm 0,6 UV-I 115 W/m 12,8 C 14,1 C 0,0 km/h (0 Bft) 97,79 %
02.09.2018 12:00 14,2 C 18,9 C 15,3 C 93 % 1019,9 hPa 0,8 l/m 0,0 km/h (0 Bft) N 0,00 h 0,051 mm 0,7 UV-I 112 W/m 13,1 C 14,2 C 0,1 km/h (0 Bft) 96,78 %
02.09.2018 13:00 15,1 C 18,9 C 20,3 C 92 % 1019,5 hPa 0,0 l/m 0,2 km/h (0 Bft) NO 0,47 h 0,050 mm 2,4 UV-I 403 W/m 13,7 C 15,1 C 0,7 km/h (0 Bft) 96,01 %
02.09.2018 14:00 15,8 C 18,9 C 19,0 C 89 % 1019,2 hPa 0,0 l/m 0,5 km/h (0 Bft) N-NO 0,00 h 0,204 mm 1,4 UV-I 235 W/m 14,0 C 15,8 C 2,1 km/h (1 Bft) 99,00 %
02.09.2018 15:00 16,2 C 18,9 C 19,6 C 87 % 1018,8 hPa 0,0 l/m 0,1 km/h (0 Bft) N 0,00 h 0,127 mm 1,2 UV-I 233 W/m 14,0 C 16,2 C 0,7 km/h (0 Bft) 97,43 %
02.09.2018 16:00 16,9 C 19,1 C 19,5 C 85 % 1018,5 hPa 0,0 l/m 2,2 km/h (1 Bft) NO 0,13 h 0,127 mm 1,1 UV-I 232 W/m 14,4 C 16,8 C 5,9 km/h (2 Bft) 98,04 %
02.09.2018 17:00 17,1 C 19,4 C 19,0 C 86 % 1018,0 hPa 0,0 l/m 5,1 km/h (1 Bft) NO 0,23 h 0,127 mm 0,4 UV-I 168 W/m 14,7 C 16,8 C 8,6 km/h (2 Bft) 95,31 %
02.09.2018 18:00 16,9 C 19,4 C 18,1 C 87 % 1017,8 hPa 0,0 l/m 2,2 km/h (1 Bft) O-NO 0,07 h 0,101 mm 0,0 UV-I 80 W/m 14,8 C 16,6 C 4,8 km/h (1 Bft) 97,12 %
02.09.2018 19:00 16,4 C 19,4 C 16,6 C 91 % 1017,4 hPa 0,0 l/m 0,0 km/h (0 Bft) N 0,27 h 0,051 mm 0,0 UV-I 22 W/m 14,9 C 16,4 C 0,0 km/h (0 Bft) 96,71 %
02.09.2018 20:00 15,7 C 19,1 C 14,7 C 94 % 1017,3 hPa 0,0 l/m 0,0 km/h (0 Bft) N 0,00 h 0,000 mm 0,0 UV-I 0 W/m 14,7 C 15,7 C 0,0 km/h (0 Bft) 98,77 %
02.09.2018 21:00 14,8 C 18,9 C 12,2 C 96 % 1017,1 hPa 0,0 l/m 0,0 km/h (0 Bft) N 0,00 h 0,000 mm 0,0 UV-I 0 W/m 14,1 C 14,8 C 0,0 km/h (0 Bft) 95,88 %
02.09.2018 22:00 14,1 C 18,9 C 12,6 C 96 % 1017,0 hPa 0,2 l/m 0,0 km/h (0 Bft) N 0,00 h 0,000 mm 0,0 UV-I 0 W/m 13,5 C 14,1 C 0,0 km/h (0 Bft) 97,95 %
02.09.2018 23:00 13,9 C 18,9 C 12,8 C 97 % 1016,4 hPa 0,0 l/m 0,0 km/h (0 Bft) N 0,00 h 0,000 mm 0,0 UV-I 0 W/m 13,5 C 13,9 C 0,0 km/h (0 Bft) 97,02 %
Min-Datum _ 27.08.18 02.09.18 27.08.18 27.08.18 29.08.18 - 27.08.18 - - - - - 27.08.18 27.08.18 27.08.18 31.08.18
_ Min-Zeit 06:14 02:38 02:36 17:52 18:50 - 00:22 - - - - - 06:08 06:14 00:22 07:54
Minimum _ 6,1 C 18,9 C 4,4 C 32 % 1010,8 hPa - 0,0 km/h (0 Bft) - - - - - 5,2 C 6,1 C 0,0 km/h (0 Bft) 85,71 %
Max-Datum _ 29.08.18 29.08.18 28.08.18 30.08.18 02.09.18 01.09.18 30.08.18 - 27.08.18 28.08.18 27.08.18 28.08.18 30.08.18 29.08.18 30.08.18 27.08.18
_ Max-Zeit 17:02 16:40 14:12 23:52 00:56 02:10 14:26 - 07:05 14:02 12:56 14:18 02:10 17:02 14:26 00:02
Maximum _ 27,7 C 23,3 C 39,4 C 97 % 1020,7 hPa 3,4 l/m 25,2 km/h
W-SW (4 Bft)
- 0,05 h 0,483 mm 5,2 UV-I 838 W/m 16,8 C 27,7 C 40,2 km/h
SW (6 Bft)
100,00 %
Durchschnitt _ 16,5 C 20,9 C 17,9 C 82 % 1017,0 hPa #24,6 l/m 2,8 km/h (1 Bft) W-SW #36:22 h #11,861 mm 1,7 UV-I 231 W/m 12,9 C 16,1 C 5,1 km/h (1 Bft) 97,27 %